ADDS METAR Data INFO
IDs: Format: Raw Decoded Include TAF

Data at: 1109 UTC 17 Jul 2018

KSUN 171055Z AUTO 30007KT 10SM CLR 14/09 A3025 RMK AO2 LTG DSNT E
KSUN 171035Z AUTO 31007KT 10SM CLR 14/10 A3025 RMK AO2
KSUN 171015Z AUTO 30007KT 10SM CLR 14/10 A3024 RMK AO2 LTG DSNT NE AND E
KSUN 170955Z AUTO 30005KT 10SM CLR 14/10 A3024 RMK AO2 LTG DSNT E
KSUN 170935Z AUTO 30009KT 10SM CLR 14/10 A3023 RMK AO2 LTG DSNT NE
KSUN 170915Z AUTO 30008KT 10SM CLR 14/10 A3024 RMK AO2
KSUN 170855Z AUTO 30007KT 10SM CLR 15/10 A3023 RMK AO2
KSUN 170835Z AUTO 31007KT 10SM CLR 15/11 A3023 RMK AO2 LTG DSNT E
KSUN 170815Z AUTO 30009KT 10SM CLR 14/11 A3024 RMK AO2
KSUN 170755Z AUTO 32008KT 10SM CLR 16/12 A3024 RMK AO2
KSUN 170735Z AUTO 32005KT 10SM CLR 16/12 A3024 RMK AO2
KSUN 170715Z AUTO 32006KT 10SM CLR 16/12 A3025 RMK AO2 LTG DSNT NE
KSUN 170655Z AUTO 32007KT 10SM CLR 16/12 A3024 RMK AO2 LTG DSNT NE
KSUN 170635Z AUTO 29006KT 10SM CLR 15/12 A3024 RMK AO2
KSUN 170615Z AUTO 29004KT 10SM CLR 16/13 A3025 RMK AO2 LTG DSNT NE AND E
KSUN 170455Z 17004KT 10SM BKN120CB 21/11 A3022
KSUN 170350Z 11010G19KT 10SM VCTS BKN120CB 21/11 A3017 RMK TSB45 TS SE MOV S FRQ LTGICCCCG
KSUN 170255Z 00000KT 10SM SCT130 21/13 A3015
KSUN 170150Z 00000KT 10SM SCT130 26/16 A3014
KSUN 170052Z 13010KT 10SM SCT130 27/13 A3014
KSUN 162350Z 20004KT 10SM SCT130 29/10 A3016
KSUN 162253Z 00000KT 10SM SCT130 28/08 A3018
KSUN 162147Z 31007KT 10SM SCT130 24/12 A3021
KSUN 162047Z 31012G18KT 10SM SCT050 BKN130 24/12 A3023
KSUN 162008Z 30008KT 10SM SCT080 BKN110 BKN130 22/12 A3023 RMK TSE2008
KSUN 161950Z 09009KT 10SM VCTS SCT080 BKN110 BKN130 21/11 A3022 RMK ONCL LTG CG TSB1905
KSUN 161902Z 20010G18KT 10SM VCTS SCT080 BKN110 BKN130 24/12 A3024 RMK ONCL LTG CG TSB1905
KSUN 161847Z 14010KT 10SM -DZ OVC130 26/09 A3022
KSUN 161750Z 13010KT 10SM SCT130 28/09 A3022
KSUN 161647Z 00000KT 10SM SKC 27/08 A3021
KSUN 161547Z 30005KT 10SM SKC 24/09 A3022
KSUN 161451Z 31009KT 10SM SKC 22/09 A3023
KSUN 161350Z 30007KT 10SM SCT130 19/11 A3023
KSUN 161335Z AUTO 30006KT 10SM CLR 17/10 A3023 RMK AO2
KSUN 161315Z AUTO 29006KT 10SM CLR 18/09 A3022 RMK AO2
KSUN 161255Z AUTO 31009KT 10SM SCT110 17/09 A3022 RMK AO2
KSUN 161250Z 29008KT 10SM SCT130 18/09 A3021
KSUN 161235Z AUTO 30008KT 10SM SCT070 SCT090 SCT120 18/10 A3020 RMK AO2
KSUN 161215Z AUTO 02006KT 10SM -RA SCT070 BKN080 OVC110 21/10 A3022 RMK AO2 LTG DSNT S
KSUN 161155Z AUTO 29006KT 10SM VCTS BKN110 21/06 A3020 RMK AO2 LTG DSNT S
KSUN 161135Z AUTO 31006KT 10SM SCT120 21/06 A3019 RMK AO2
KSUN 161115Z AUTO 33006KT 10SM SCT120 23/04 A3020 RMK AO2 LTG DSNT S
KSUN 161055Z AUTO 35007KT 10SM SCT120 23/05 A3020 RMK AO2
KSUN 161035Z AUTO 36012G15KT 10SM SCT100 BKN120 22/06 A3019 RMK AO2
KSUN 161015Z AUTO 34009KT 10SM BKN110 20/06 A3021 RMK AO2 LTG DSNT S
KSUN 160955Z AUTO 28007KT 10SM SCT120 21/06 A3018 RMK AO2 LTG DSNT SW
KSUN 160935Z AUTO 30007KT 10SM SCT120 21/05 A3018 RMK AO2
KSUN 160915Z AUTO 34004KT 10SM SCT120 20/05 A3018 RMK AO2
KSUN 160855Z AUTO 20003KT 10SM SCT110 20/06 A3019 RMK AO2
KSUN 160835Z AUTO 28003KT 10SM OVC110 23/05 A3021 RMK AO2
KSUN 160815Z AUTO 03004KT 10SM BKN120 23/03 A3020 RMK AO2
KSUN 160755Z AUTO 28004KT 10SM SCT120 20/06 A3019 RMK AO2 LTG DSNT E AND W
KSUN 160735Z AUTO 33003KT 10SM VCTS CLR 23/03 A3018 RMK AO2
KSUN 160715Z AUTO 31007KT 10SM VCTS CLR 21/05 A3016 RMK AO2
KSUN 160655Z AUTO 31008KT 10SM SCT120 22/06 A3016 RMK AO2 LTG DSNT SW
KSUN 160635Z AUTO 29007KT 10SM SCT120 22/05 A3016 RMK AO2 LTG DSNT SW
KSUN 160615Z AUTO 35007KT 10SM SCT120 22/06 A3017 RMK AO2
KSUN 160450Z 30007KT 10SM BKN130 22/07 A3015
KSUN 160350Z 32005KT 10SM BKN130 29/04 A3014
KSUN 160255Z 33006KT 10SM BKN130 29/04 A3012
KSUN 160147Z 28008KT 10SM SCT120 29/04 A3009
KSUN 160047Z 21006KT 10SM SCT120 31/04 A3008
KSUN 152347Z 23008G14KT 10SM FEW120 33/04 A3009